Time;durP1;ratioP1;P1;durP2;ratioP2;P2;SDS_P1;SDS_P2;PMS_P1;PMS_P2;Temp;Humidity;BMP_temperature;BMP_pressure;BME280_temperature;BME280_humidity;BME280_pressure;Samples;Min_cycle;Max_cycle;Signal;HPM_P1;HPM_P2
2022/06/18 00:01:35;;;;;;;5.60;2.63;;;;;;;;;;5039452;28;20387;-81
2022/06/18 00:04:08;;;;;;;4.63;2.55;;;;;;;;;;5031497;28;20028;-82
2022/06/18 00:06:42;;;;;;;5.45;2.60;;;;;;;;;;5023955;28;20474;-78
2022/06/18 00:09:11;;;;;;;4.45;2.97;;;;;;;;;;5005409;28;20038;-83
2022/06/18 00:14:21;;;;;;;5.75;3.13;;;;;;;;;;5019815;28;20093;-81
2022/06/18 00:16:46;;;;;;;4.38;2.70;;;;;;;;;;5006365;28;20033;-80
2022/06/18 00:19:11;;;;;;;4.75;3.22;;;;;;;;;;5036418;28;20468;-82
2022/06/18 00:21:37;;;;;;;5.10;2.88;;;;;;;;;;5037894;28;20116;-82
2022/06/18 00:24:12;;;;;;;3.70;2.60;;;;;;;;;;5020603;28;20033;-82
2022/06/18 00:26:37;;;;;;;5.30;2.75;;;;;;;;;;5028778;28;20037;-82
2022/06/18 00:29:04;;;;;;;5.63;2.58;;;;;;;;;;5020992;28;20104;-81
2022/06/18 00:31:32;;;;;;;4.78;2.75;;;;;;;;;;5013589;28;20029;-81
2022/06/18 00:33:57;;;;;;;2.95;2.40;;;;;;;;;;5009371;28;20029;-81
2022/06/18 00:36:23;;;;;;;4.35;2.78;;;;;;;;;;5001584;28;20137;-80
2022/06/18 00:38:48;;;;;;;4.38;2.78;;;;;;;;;;5016050;28;20017;-81
2022/06/18 00:41:18;;;;;;;5.78;2.55;;;;;;;;;;5038002;28;20028;-83
2022/06/18 00:43:49;;;;;;;4.30;2.47;;;;;;;;;;5037313;28;20025;-80
2022/06/18 00:46:42;;;;;;;3.92;2.90;;;;;;;;;;5036227;28;20029;-81
2022/06/18 00:49:13;;;;;;;5.90;2.85;;;;;;;;;;5037878;28;20037;-81
2022/06/18 00:51:42;;;;;;;3.83;2.30;;;;;;;;;;5015601;28;20026;-81
2022/06/18 00:54:30;;;;;;;4.05;2.47;;;;;;;;;;5035110;28;20344;-78
2022/06/18 00:57:10;;;;;;;3.88;2.63;;;;;;;;;;5024406;28;20487;-82
2022/06/18 00:59:42;;;;;;;4.95;2.88;;;;;;;;;;5037816;28;20040;-82
2022/06/18 01:02:13;;;;;;;3.78;2.72;;;;;;;;;;5038505;28;20037;-81
2022/06/18 01:04:39;;;;;;;4.93;2.30;;;;;;;;;;5037986;28;20052;-80
2022/06/18 01:07:25;;;;;;;3.92;2.60;;;;;;;;;;5011574;23;20054;-82
2022/06/18 01:09:52;;;;;;;6.18;3.00;;;;;;;;;;5006752;28;20108;-82
2022/06/18 01:12:19;;;;;;;4.00;2.35;;;;;;;;;;4997079;28;20034;-82
2022/06/18 01:31:17;;;;;;;3.90;2.53;;;;;;;;;;5035709;28;20049;-82
2022/06/18 01:33:43;;;;;;;4.10;2.58;;;;;;;;;;5038737;28;20439;-82
2022/06/18 01:36:10;;;;;;;3.60;2.63;;;;;;;;;;5056445;28;20021;-83
2022/06/18 01:38:40;;;;;;;8.13;2.88;;;;;;;;;;5046003;28;20024;-83
2022/06/18 01:44:38;;;;;;;3.53;2.25;;;;;;;;;;5048327;28;20036;-82
2022/06/18 01:47:48;;;;;;;4.90;2.60;;;;;;;;;;5012645;28;20398;-82
2022/06/18 01:50:44;;;;;;;4.68;2.40;;;;;;;;;;5022443;28;20026;-83
2022/06/18 01:53:18;;;;;;;2.88;2.20;;;;;;;;;;5020340;28;20041;-84
2022/06/18 01:55:48;;;;;;;3.55;2.42;;;;;;;;;;5020550;28;20028;-81
2022/06/18 01:58:21;;;;;;;3.38;2.47;;;;;;;;;;5017915;28;20017;-81
2022/06/18 02:00:51;;;;;;;4.38;2.30;;;;;;;;;;5031154;28;20025;-81
2022/06/18 02:03:17;;;;;;;4.07;2.65;;;;;;;;;;5023804;28;20021;-81
2022/06/18 02:05:42;;;;;;;5.78;2.42;;;;;;;;;;5030432;28;20036;-82
2022/06/18 02:08:11;;;;;;;3.45;2.40;;;;;;;;;;5054909;28;20041;-83
2022/06/18 02:10:48;;;;;;;5.18;2.60;;;;;;;;;;5043119;28;20022;-83
2022/06/18 02:13:14;;;;;;;2.67;2.30;;;;;;;;;;5043991;28;20029;-82
2022/06/18 02:15:44;;;;;;;5.78;2.42;;;;;;;;;;5040261;28;20096;-83
2022/06/18 02:18:12;;;;;;;3.88;2.28;;;;;;;;;;5040765;28;20047;-83
2022/06/18 02:20:44;;;;;;;2.60;2.40;;;;;;;;;;5023210;28;20025;-82
2022/06/18 02:23:10;;;;;;;4.90;2.30;;;;;;;;;;5023058;28;20049;-83
2022/06/18 02:25:36;;;;;;;4.22;2.38;;;;;;;;;;5040080;28;20020;-82
2022/06/18 02:28:12;;;;;;;4.45;2.45;;;;;;;;;;5036723;28;20026;-82
2022/06/18 02:30:38;;;;;;;3.22;2.17;;;;;;;;;;5040364;28;20080;-83
2022/06/18 02:33:10;;;;;;;4.82;2.70;;;;;;;;;;5023181;28;20029;-83
2022/06/18 02:35:36;;;;;;;7.05;2.70;;;;;;;;;;5041358;28;20100;-83
2022/06/18 02:38:12;;;;;;;4.00;2.40;;;;;;;;;;5048632;28;20021;-82
2022/06/18 02:40:38;;;;;;;3.63;2.38;;;;;;;;;;5043828;28;20139;-84
2022/06/18 02:43:03;;;;;;;3.50;2.35;;;;;;;;;;5046285;28;20122;-83
2022/06/18 02:45:30;;;;;;;3.50;2.40;;;;;;;;;;5041460;28;20071;-83
2022/06/18 02:47:58;;;;;;;2.63;2.35;;;;;;;;;;5040246;28;20025;-82
2022/06/18 02:50:26;;;;;;;2.95;2.30;;;;;;;;;;5040031;28;20052;-83
2022/06/18 02:53:00;;;;;;;2.42;2.08;;;;;;;;;;5040836;28;20018;-82
2022/06/18 02:55:36;;;;;;;7.13;2.58;;;;;;;;;;5032497;28;20079;-83
2022/06/18 02:58:04;;;;;;;2.97;2.25;;;;;;;;;;5040736;28;20106;-83
2022/06/18 03:00:36;;;;;;;3.03;2.30;;;;;;;;;;5041293;28;20032;-82
2022/06/18 03:03:02;;;;;;;3.95;2.60;;;;;;;;;;5040288;28;20486;-83
2022/06/18 03:05:28;;;;;;;4.75;2.78;;;;;;;;;;5041581;28;20029;-83
2022/06/18 03:07:53;;;;;;;3.88;2.25;;;;;;;;;;5040883;28;20390;-83
2022/06/18 03:13:04;;;;;;;3.30;2.40;;;;;;;;;;5036175;28;20490;-83
2022/06/18 03:15:30;;;;;;;2.13;1.90;;;;;;;;;;5039010;28;20025;-82
2022/06/18 03:17:57;;;;;;;5.57;2.58;;;;;;;;;;5041076;28;20022;-82
2022/06/18 03:20:34;;;;;;;4.30;2.47;;;;;;;;;;5041227;28;20017;-82
2022/06/18 03:22:59;;;;;;;2.63;2.03;;;;;;;;;;5024742;28;20058;-82
2022/06/18 03:25:24;;;;;;;1.65;1.55;;;;;;;;;;5032574;28;20036;-82
2022/06/18 03:27:50;;;;;;;8.45;2.28;;;;;;;;;;5040318;28;20032;-82
2022/06/18 03:30:16;;;;;;;3.42;2.10;;;;;;;;;;5042305;28;20025;-82
2022/06/18 03:32:41;;;;;;;2.63;2.13;;;;;;;;;;5026620;28;20029;-82
2022/06/18 03:35:07;;;;;;;2.35;2.15;;;;;;;;;;5045093;28;20483;-82
2022/06/18 03:37:32;;;;;;;2.47;2.00;;;;;;;;;;5041002;28;20034;-82
2022/06/18 03:39:58;;;;;;;3.42;2.45;;;;;;;;;;5042562;28;20028;-82
2022/06/18 03:42:23;;;;;;;5.63;2.08;;;;;;;;;;5041038;28;20025;-83
2022/06/18 03:44:48;;;;;;;4.28;2.38;;;;;;;;;;5023820;28;20037;-83
2022/06/18 03:47:14;;;;;;;4.40;2.15;;;;;;;;;;5039825;28;20025;-83
2022/06/18 03:49:39;;;;;;;4.85;2.40;;;;;;;;;;5041955;28;20033;-83
2022/06/18 03:52:08;;;;;;;5.95;2.20;;;;;;;;;;5042135;28;20029;-83
2022/06/18 03:54:34;;;;;;;3.75;2.10;;;;;;;;;;5025017;28;20048;-83
2022/06/18 03:57:00;;;;;;;2.47;2.13;;;;;;;;;;5040484;28;20383;-83
2022/06/18 03:59:25;;;;;;;2.33;2.00;;;;;;;;;;5040910;28;20021;-83
2022/06/18 04:01:51;;;;;;;3.38;2.38;;;;;;;;;;5024328;28;20089;-83
2022/06/18 04:04:16;;;;;;;4.65;2.15;;;;;;;;;;5023289;28;20030;-83
2022/06/18 04:06:43;;;;;;;3.08;2.35;;;;;;;;;;5023330;28;20025;-83
2022/06/18 04:09:09;;;;;;;3.17;1.98;;;;;;;;;;5041063;28;20452;-82
2022/06/18 04:11:35;;;;;;;3.00;2.22;;;;;;;;;;5041823;28;20026;-83
2022/06/18 04:14:00;;;;;;;2.63;2.03;;;;;;;;;;5043273;28;20075;-83
2022/06/18 04:16:26;;;;;;;5.65;2.20;;;;;;;;;;5025065;28;20022;-83
2022/06/18 04:18:51;;;;;;;2.42;2.20;;;;;;;;;;5026067;28;20392;-83
2022/06/18 04:21:17;;;;;;;3.58;2.10;;;;;;;;;;5042125;28;20026;-83
2022/06/18 04:23:43;;;;;;;4.15;2.33;;;;;;;;;;5051746;28;20389;-83
2022/06/18 04:26:09;;;;;;;3.17;2.20;;;;;;;;;;5024762;28;20029;-83
2022/06/18 04:28:35;;;;;;;2.72;2.40;;;;;;;;;;5042244;28;20531;-83
2022/06/18 04:31:01;;;;;;;3.88;2.35;;;;;;;;;;5041547;28;20068;-83
2022/06/18 04:33:26;;;;;;;3.13;2.17;;;;;;;;;;5051762;28;20479;-83
2022/06/18 04:35:53;;;;;;;6.50;2.58;;;;;;;;;;5024206;28;20129;-83
2022/06/18 04:38:20;;;;;;;2.25;2.05;;;;;;;;;;5025282;28;20041;-83
2022/06/18 04:40:46;;;;;;;3.95;2.35;;;;;;;;;;5029135;28;20025;-84
2022/06/18 04:43:12;;;;;;;4.47;2.10;;;;;;;;;;5024522;28;20049;-83
2022/06/18 04:45:37;;;;;;;3.10;2.10;;;;;;;;;;5038796;28;20088;-83
2022/06/18 04:48:04;;;;;;;6.38;2.65;;;;;;;;;;5042234;28;20116;-83
2022/06/18 04:50:38;;;;;;;4.03;2.53;;;;;;;;;;5039428;28;20075;-85
2022/06/18 04:53:04;;;;;;;4.45;2.20;;;;;;;;;;5043725;28;20053;-83
2022/06/18 04:55:30;;;;;;;3.20;2.20;;;;;;;;;;5022381;28;20026;-83
2022/06/18 04:57:56;;;;;;;4.55;2.22;;;;;;;;;;5042202;28;20032;-83
2022/06/18 05:00:22;;;;;;;2.10;1.90;;;;;;;;;;5041968;28;20048;-83
2022/06/18 05:02:48;;;;;;;2.03;1.90;;;;;;;;;;5042274;28;20025;-83
2022/06/18 05:05:19;;;;;;;3.10;2.00;;;;;;;;;;5024050;28;20486;-83
2022/06/18 05:07:45;;;;;;;4.85;2.03;;;;;;;;;;5040167;28;20025;-83
2022/06/18 05:10:11;;;;;;;4.00;2.47;;;;;;;;;;5042309;28;20037;-83
2022/06/18 05:12:37;;;;;;;4.15;2.22;;;;;;;;;;5040277;28;20017;-83
2022/06/18 05:15:07;;;;;;;6.15;2.30;;;;;;;;;;5027672;28;20036;-83
2022/06/18 05:17:34;;;;;;;2.10;1.90;;;;;;;;;;5041380;28;20018;-83
2022/06/18 05:20:00;;;;;;;3.78;2.60;;;;;;;;;;5045710;28;20047;-83
2022/06/18 05:22:27;;;;;;;4.25;2.03;;;;;;;;;;5023435;28;20018;-83
2022/06/18 05:24:53;;;;;;;2.10;1.80;;;;;;;;;;5046274;28;20032;-83
2022/06/18 05:27:24;;;;;;;3.28;2.20;;;;;;;;;;5043751;28;20022;-84
2022/06/18 05:29:49;;;;;;;3.17;1.80;;;;;;;;;;5038647;28;20021;-83
2022/06/18 05:32:15;;;;;;;4.65;1.85;;;;;;;;;;5044900;28;20056;-83
2022/06/18 05:34:40;;;;;;;4.50;2.05;;;;;;;;;;5031350;28;20025;-83
2022/06/18 05:37:19;;;;;;;2.28;1.95;;;;;;;;;;5044188;28;20424;-83
2022/06/18 05:39:45;;;;;;;1.95;1.77;;;;;;;;;;5037372;28;20021;-84
2022/06/18 05:42:11;;;;;;;5.22;2.20;;;;;;;;;;5046213;28;20391;-84
2022/06/18 05:44:37;;;;;;;9.75;3.15;;;;;;;;;;5045064;28;20025;-83
2022/06/18 05:47:18;;;;;;;2.25;2.03;;;;;;;;;;5050746;28;20024;-83
2022/06/18 05:49:43;;;;;;;5.05;2.10;;;;;;;;;;5027189;28;20120;-83
2022/06/18 05:52:09;;;;;;;4.65;2.00;;;;;;;;;;5045568;28;20368;-83
2022/06/18 05:54:35;;;;;;;4.95;1.95;;;;;;;;;;5026602;28;20021;-83
2022/06/18 05:57:01;;;;;;;2.38;1.88;;;;;;;;;;5043952;28;20048;-83
2022/06/18 05:59:26;;;;;;;5.05;2.25;;;;;;;;;;5045916;28;20032;-83
2022/06/18 06:01:56;;;;;;;3.33;1.98;;;;;;;;;;5045437;28;20367;-83
2022/06/18 06:04:21;;;;;;;2.42;1.95;;;;;;;;;;5031635;28;20060;-83
2022/06/18 06:06:46;;;;;;;2.60;1.90;;;;;;;;;;5042124;28;20021;-83
2022/06/18 06:09:13;;;;;;;2.35;1.90;;;;;;;;;;5027808;28;20022;-83
2022/06/18 06:11:38;;;;;;;4.38;1.98;;;;;;;;;;5045469;28;20025;-83
2022/06/18 06:14:07;;;;;;;2.97;1.80;;;;;;;;;;5045435;28;20036;-83
2022/06/18 06:16:32;;;;;;;3.55;1.80;;;;;;;;;;5040863;28;20033;-83
2022/06/18 06:18:57;;;;;;;4.45;2.33;;;;;;;;;;5028641;28;20017;-84
2022/06/18 06:21:23;;;;;;;4.57;2.38;;;;;;;;;;5046149;28;20081;-83
2022/06/18 06:23:49;;;;;;;3.35;1.98;;;;;;;;;;5047141;28;20033;-83
2022/06/18 06:26:26;;;;;;;3.17;2.20;;;;;;;;;;5029382;28;20036;-84
2022/06/18 06:28:52;;;;;;;3.33;2.17;;;;;;;;;;5022673;28;20029;-83
2022/06/18 06:31:18;;;;;;;2.00;1.80;;;;;;;;;;5028133;28;20044;-84
2022/06/18 06:33:43;;;;;;;2.38;1.95;;;;;;;;;;5046281;28;20400;-84
2022/06/18 06:36:12;;;;;;;2.72;2.05;;;;;;;;;;5028803;28;20056;-84
2022/06/18 06:38:39;;;;;;;9.52;2.00;;;;;;;;;;5028376;28;20369;-83
2022/06/18 06:41:12;;;;;;;2.13;1.90;;;;;;;;;;5028474;28;20034;-83
2022/06/18 06:43:37;;;;;;;4.22;1.88;;;;;;;;;;5048574;28;20048;-83
2022/06/18 06:46:02;;;;;;;3.65;1.80;;;;;;;;;;5044495;28;20029;-83
2022/06/18 06:48:28;;;;;;;1.75;1.65;;;;;;;;;;5054350;28;20033;-82
2022/06/18 06:50:54;;;;;;;2.58;2.17;;;;;;;;;;5029615;28;20021;-83
2022/06/18 06:53:19;;;;;;;3.83;1.80;;;;;;;;;;5047014;28;20029;-82
2022/06/18 06:58:29;;;;;;;4.05;2.00;;;;;;;;;;5054884;28;20089;-83
2022/06/18 07:00:56;;;;;;;2.30;1.70;;;;;;;;;;5042495;28;20029;-83
2022/06/18 07:03:25;;;;;;;4.07;1.83;;;;;;;;;;5059292;28;20036;-83
2022/06/18 07:05:51;;;;;;;3.38;1.90;;;;;;;;;;5074735;23;20009;-81
2022/06/18 07:08:16;;;;;;;3.10;2.03;;;;;;;;;;5035728;28;20034;-82
2022/06/18 07:10:43;;;;;;;1.70;1.60;;;;;;;;;;5037501;28;20028;-82
2022/06/18 07:13:08;;;;;;;3.17;1.90;;;;;;;;;;5034053;28;20034;-81
2022/06/18 07:15:34;;;;;;;2.78;2.20;;;;;;;;;;5038333;28;20025;-83
2022/06/18 07:18:01;;;;;;;3.50;2.10;;;;;;;;;;5037250;28;20025;-82
2022/06/18 07:20:26;;;;;;;3.40;2.20;;;;;;;;;;5035714;28;20739;-81
2022/06/18 07:22:54;;;;;;;4.13;1.92;;;;;;;;;;5036083;28;20045;-81
2022/06/18 07:25:20;;;;;;;2.42;1.90;;;;;;;;;;5038909;28;20037;-81
2022/06/18 07:27:45;;;;;;;4.82;2.10;;;;;;;;;;5039146;28;20077;-82
2022/06/18 07:30:11;;;;;;;6.07;2.03;;;;;;;;;;5045674;28;20670;-81
2022/06/18 07:32:43;;;;;;;4.13;2.10;;;;;;;;;;5016695;28;20025;-81
2022/06/18 07:35:15;;;;;;;2.38;1.80;;;;;;;;;;5036403;28;21575;-80
2022/06/18 07:37:41;;;;;;;5.00;2.22;;;;;;;;;;5036284;28;20137;-81
2022/06/18 07:40:06;;;;;;;2.35;1.85;;;;;;;;;;5044718;28;20049;-79
2022/06/18 07:42:32;;;;;;;2.72;2.10;;;;;;;;;;5038609;28;20025;-80
2022/06/18 07:44:57;;;;;;;3.97;1.95;;;;;;;;;;5048072;28;20021;-81
2022/06/18 07:47:23;;;;;;;3.35;1.80;;;;;;;;;;5056301;28;20029;-81
2022/06/18 07:49:48;;;;;;;1.98;1.75;;;;;;;;;;5052866;28;20022;-80
2022/06/18 07:52:14;;;;;;;3.55;1.60;;;;;;;;;;5018971;28;20360;-81
2022/06/18 07:54:42;;;;;;;5.95;1.90;;;;;;;;;;5044629;28;20036;-80
2022/06/18 07:57:07;;;;;;;1.95;1.83;;;;;;;;;;5050993;28;20025;-80
2022/06/18 07:59:33;;;;;;;2.30;1.90;;;;;;;;;;5056856;28;20028;-81
2022/06/18 08:01:58;;;;;;;5.15;1.83;;;;;;;;;;5040877;28;20025;-80
2022/06/18 08:04:25;;;;;;;3.30;2.05;;;;;;;;;;5036069;28;20025;-80
2022/06/18 08:06:50;;;;;;;2.38;1.80;;;;;;;;;;5036573;28;20074;-80
2022/06/18 08:09:15;;;;;;;2.67;2.00;;;;;;;;;;5042262;28;20021;-80
2022/06/18 08:11:42;;;;;;;3.08;1.85;;;;;;;;;;5035317;28;20029;-80
2022/06/18 08:14:08;;;;;;;3.53;1.88;;;;;;;;;;5044759;28;20056;-81
2022/06/18 08:16:34;;;;;;;2.17;1.75;;;;;;;;;;5054939;28;20111;-81
2022/06/18 08:19:00;;;;;;;1.70;1.60;;;;;;;;;;5044995;28;20056;-79
2022/06/18 08:21:36;;;;;;;1.98;1.80;;;;;;;;;;5036059;28;20079;-80
2022/06/18 08:24:07;;;;;;;2.67;1.70;;;;;;;;;;5036528;28;20040;-81
2022/06/18 08:26:34;;;;;;;2.78;1.80;;;;;;;;;;5035584;28;20026;-80
2022/06/18 08:29:02;;;;;;;2.20;2.00;;;;;;;;;;5037090;28;20084;-81
2022/06/18 08:31:28;;;;;;;2.70;1.63;;;;;;;;;;5035215;28;20086;-81
2022/06/18 08:33:54;;;;;;;5.10;1.60;;;;;;;;;;5038373;28;20021;-80
2022/06/18 08:36:19;;;;;;;1.65;1.55;;;;;;;;;;5038063;28;20099;-78
2022/06/18 08:38:48;;;;;;;3.33;1.50;;;;;;;;;;5032467;28;20464;-81
2022/06/18 08:41:34;;;;;;;2.08;1.88;;;;;;;;;;5037004;28;20029;-79
2022/06/18 08:44:00;;;;;;;1.95;1.50;;;;;;;;;;5036927;28;20055;-81
2022/06/18 08:46:37;;;;;;;2.25;1.77;;;;;;;;;;5020520;28;20483;-82
2022/06/18 08:49:15;;;;;;;2.38;1.73;;;;;;;;;;5037243;28;20375;-80
2022/06/18 08:51:57;;;;;;;3.10;1.58;;;;;;;;;;5033621;28;20021;-79
2022/06/18 08:54:41;;;;;;;4.57;2.05;;;;;;;;;;5037433;28;20021;-81
2022/06/18 08:57:34;;;;;;;2.33;1.38;;;;;;;;;;5036642;28;20075;-82
2022/06/18 09:00:34;;;;;;;1.80;1.70;;;;;;;;;;5039569;28;20029;-81
2022/06/18 09:03:11;;;;;;;1.70;1.60;;;;;;;;;;5004264;28;20051;-80
2022/06/18 09:05:52;;;;;;;1.80;1.50;;;;;;;;;;5038103;28;20029;-82
2022/06/18 09:08:35;;;;;;;2.07;1.73;;;;;;;;;;5041176;28;20112;-82
2022/06/18 09:11:09;;;;;;;2.75;1.40;;;;;;;;;;5039511;28;20032;-81
2022/06/18 09:13:45;;;;;;;2.17;1.50;;;;;;;;;;5050210;28;20041;-79
2022/06/18 09:16:15;;;;;;;6.32;1.63;;;;;;;;;;5047755;28;20026;-80
2022/06/18 09:18:55;;;;;;;2.72;1.33;;;;;;;;;;5039760;28;20068;-80
2022/06/18 09:21:43;;;;;;;1.52;1.30;;;;;;;;;;5040137;28;20040;-81
2022/06/18 09:24:13;;;;;;;1.75;1.40;;;;;;;;;;5037367;28;20100;-80
2022/06/18 09:26:41;;;;;;;1.33;1.23;;;;;;;;;;5036389;28;20022;-81
2022/06/18 09:29:45;;;;;;;3.25;1.63;;;;;;;;;;5043990;28;20025;-83
2022/06/18 09:32:24;;;;;;;3.15;1.65;;;;;;;;;;5035096;28;20056;-79
2022/06/18 09:35:10;;;;;;;3.47;1.48;;;;;;;;;;5029908;28;20386;-77
2022/06/18 09:37:42;;;;;;;1.48;1.30;;;;;;;;;;5722215;23;20038;-80
2022/06/18 09:40:16;;;;;;;3.42;1.50;;;;;;;;;;5012469;28;20069;-80
2022/06/18 09:42:48;;;;;;;1.42;1.23;;;;;;;;;;5002887;28;20491;-79
2022/06/18 09:45:32;;;;;;;1.70;1.30;;;;;;;;;;5035798;28;20025;-80
2022/06/18 09:48:00;;;;;;;2.95;1.65;;;;;;;;;;5059460;28;20364;-82
2022/06/18 09:50:35;;;;;;;2.13;1.30;;;;;;;;;;5056585;28;20479;-82
2022/06/18 09:53:11;;;;;;;2.80;1.40;;;;;;;;;;5040521;28;20025;-82
2022/06/18 09:55:44;;;;;;;3.15;1.25;;;;;;;;;;5038590;28;20036;-81
2022/06/18 09:58:14;;;;;;;2.22;1.30;;;;;;;;;;5038228;28;20388;-81
2022/06/18 10:00:42;;;;;;;2.13;1.33;;;;;;;;;;5040704;28;20028;-82
2022/06/18 10:03:14;;;;;;;2.83;1.33;;;;;;;;;;5037217;28;20036;-81
2022/06/18 10:08:35;;;;;;;3.60;1.30;;;;;;;;;;5037142;28;20098;-79
2022/06/18 10:11:07;;;;;;;1.20;1.13;;;;;;;;;;5038709;28;20037;-82
2022/06/18 10:13:39;;;;;;;1.17;1.10;;;;;;;;;;5047452;28;20021;-80
2022/06/18 10:16:14;;;;;;;1.48;1.10;;;;;;;;;;5034577;28;20021;-80
2022/06/18 10:18:51;;;;;;;1.73;1.10;;;;;;;;;;5054066;28;20021;-81
2022/06/18 10:21:34;;;;;;;1.08;0.98;;;;;;;;;;5033785;28;20052;-79
2022/06/18 10:24:02;;;;;;;1.73;1.35;;;;;;;;;;5031410;28;20032;-81
2022/06/18 10:27:01;;;;;;;1.40;1.10;;;;;;;;;;5039152;28;20025;-82
2022/06/18 10:29:35;;;;;;;1.25;1.15;;;;;;;;;;5038833;28;20109;-80
2022/06/18 10:32:24;;;;;;;1.88;1.10;;;;;;;;;;5035984;28;20022;-80
2022/06/18 10:34:59;;;;;;;1.20;1.10;;;;;;;;;;5038598;28;20040;-81
2022/06/18 10:37:47;;;;;;;2.40;1.00;;;;;;;;;;5039196;28;20021;-78
2022/06/18 10:40:19;;;;;;;1.83;0.88;;;;;;;;;;5037262;28;20029;-83
2022/06/18 10:43:02;;;;;;;1.35;1.25;;;;;;;;;;5018918;28;20026;-79
2022/06/18 10:45:30;;;;;;;4.53;1.52;;;;;;;;;;5054064;28;20040;-79
2022/06/18 10:47:56;;;;;;;1.30;1.20;;;;;;;;;;5056497;28;20037;-80
2022/06/18 10:50:24;;;;;;;1.23;1.13;;;;;;;;;;5056848;28;20055;-80
2022/06/18 10:53:06;;;;;;;1.75;1.50;;;;;;;;;;5046106;28;20017;-81
2022/06/18 10:55:32;;;;;;;5.45;1.48;;;;;;;;;;5044316;28;20366;-81
2022/06/18 10:58:10;;;;;;;1.30;1.20;;;;;;;;;;5035446;28;20100;-80
2022/06/18 11:00:36;;;;;;;1.77;1.20;;;;;;;;;;5032434;28;20033;-81
2022/06/18 11:03:15;;;;;;;2.33;1.25;;;;;;;;;;5034377;28;20100;-79
2022/06/18 11:05:44;;;;;;;3.00;1.30;;;;;;;;;;5027874;28;20039;-81
2022/06/18 11:08:32;;;;;;;1.45;1.20;;;;;;;;;;5041664;28;20090;-80
2022/06/18 11:11:04;;;;;;;1.30;1.20;;;;;;;;;;5026164;28;20099;-80
2022/06/18 11:13:44;;;;;;;1.13;1.10;;;;;;;;;;5051268;28;20078;-77
2022/06/18 11:16:12;;;;;;;1.40;1.30;;;;;;;;;;5020571;28;20117;-80
2022/06/18 11:18:44;;;;;;;1.30;1.20;;;;;;;;;;5037020;28;20022;-80
2022/06/18 11:21:29;;;;;;;4.50;1.45;;;;;;;;;;5032984;28;20088;-80
2022/06/18 11:24:02;;;;;;;1.98;1.33;;;;;;;;;;5053866;28;20021;-78
2022/06/18 11:26:28;;;;;;;1.42;1.30;;;;;;;;;;5055804;28;20024;-79
2022/06/18 11:29:04;;;;;;;1.50;1.40;;;;;;;;;;5049958;28;20051;-78
2022/06/18 11:31:33;;;;;;;1.90;1.17;;;;;;;;;;5035570;28;20451;-79
2022/06/18 11:34:07;;;;;;;2.85;1.40;;;;;;;;;;5035729;28;20037;-80
2022/06/18 11:36:45;;;;;;;3.22;1.30;;;;;;;;;;5036564;28;20475;-81
2022/06/18 11:39:22;;;;;;;9.57;1.75;;;;;;;;;;5048951;28;20052;-83
2022/06/18 11:41:50;;;;;;;1.58;1.10;;;;;;;;;;5043386;28;20017;-81
2022/06/18 11:44:22;;;;;;;1.48;1.20;;;;;;;;;;5049734;28;20338;-82
2022/06/18 11:46:59;;;;;;;3.08;1.33;;;;;;;;;;5039878;28;20029;-82
2022/06/18 11:49:32;;;;;;;2.80;1.42;;;;;;;;;;5030448;28;20025;-83
2022/06/18 11:52:08;;;;;;;3.47;1.30;;;;;;;;;;5039018;28;20079;-82
2022/06/18 11:54:56;;;;;;;3.47;1.20;;;;;;;;;;5039558;28;20484;-82
2022/06/18 11:57:29;;;;;;;2.28;1.25;;;;;;;;;;5039789;28;20041;-83
2022/06/18 12:00:20;;;;;;;4.32;1.50;;;;;;;;;;5036897;28;20061;-81
2022/06/18 12:03:00;;;;;;;2.08;1.33;;;;;;;;;;5029187;28;20021;-82
2022/06/18 12:05:35;;;;;;;1.88;1.38;;;;;;;;;;5036889;28;20025;-82
2022/06/18 12:08:03;;;;;;;4.40;1.55;;;;;;;;;;5044683;28;20053;-83
2022/06/18 12:11:02;;;;;;;2.38;1.42;;;;;;;;;;5043618;28;20033;-81
2022/06/18 12:13:42;;;;;;;3.72;1.50;;;;;;;;;;5039495;28;20037;-81
2022/06/18 12:16:35;;;;;;;2.95;1.88;;;;;;;;;;5041571;28;20021;-82
2022/06/18 12:19:16;;;;;;;2.17;1.40;;;;;;;;;;5044327;28;20092;-80
2022/06/18 12:21:46;;;;;;;2.65;1.60;;;;;;;;;;5041226;28;20022;-84
2022/06/18 12:24:33;;;;;;;3.38;1.55;;;;;;;;;;5041767;28;20029;-78
2022/06/18 12:27:06;;;;;;;2.90;1.58;;;;;;;;;;5047051;28;20028;-80
2022/06/18 12:29:50;;;;;;;6.53;1.50;;;;;;;;;;5050960;28;20516;-79
2022/06/18 12:32:31;;;;;;;6.10;1.80;;;;;;;;;;5039648;28;20041;-79
2022/06/18 12:35:05;;;;;;;6.93;1.92;;;;;;;;;;5035053;28;20065;-78
2022/06/18 12:37:53;;;;;;;7.43;1.67;;;;;;;;;;5036762;28;20037;-79
2022/06/18 12:40:37;;;;;;;2.95;1.40;;;;;;;;;;5038752;28;20017;-79
2022/06/18 12:43:06;;;;;;;12.50;1.50;;;;;;;;;;5042914;28;20487;-79
2022/06/18 12:45:39;;;;;;;7.72;2.33;;;;;;;;;;5045906;28;20021;-81
2022/06/18 12:48:28;;;;;;;7.68;3.30;;;;;;;;;;5046693;28;20025;-79
2022/06/18 12:51:04;;;;;;;6.72;2.08;;;;;;;;;;5038025;28;20026;-88
2022/06/18 12:53:46;;;;;;;4.50;1.92;;;;;;;;;;5022265;28;20071;-83
2022/06/18 12:56:14;;;;;;;13.38;2.25;;;;;;;;;;5041989;28;20060;-81
2022/06/18 12:58:45;;;;;;;13.63;2.47;;;;;;;;;;5037997;28;20024;-81
2022/06/18 13:01:28;;;;;;;12.48;2.03;;;;;;;;;;5036254;28;20025;-79
2022/06/18 13:04:22;;;;;;;10.80;2.00;;;;;;;;;;5030781;28;20093;-83
2022/06/18 13:07:15;;;;;;;4.95;2.08;;;;;;;;;;5023284;28;20021;-81
2022/06/18 13:09:43;;;;;;;6.93;1.98;;;;;;;;;;5035961;28;20035;-85
2022/06/18 13:12:19;;;;;;;8.40;2.20;;;;;;;;;;5019393;28;20104;-80
2022/06/18 13:15:03;;;;;;;11.90;2.35;;;;;;;;;;5035471;28;20372;-80
2022/06/18 13:17:39;;;;;;;15.30;3.15;;;;;;;;;;5052745;28;20036;-81
2022/06/18 13:20:13;;;;;;;11.70;2.85;;;;;;;;;;5035195;28;20026;-81
2022/06/18 13:22:39;;;;;;;14.50;2.60;;;;;;;;;;5036743;28;20032;-82
2022/06/18 13:28:26;;;;;;;11.48;2.30;;;;;;;;;;5035688;28;20072;-82
2022/06/18 13:31:06;;;;;;;10.35;2.30;;;;;;;;;;4974947;28;20038;-79
2022/06/18 13:33:31;;;;;;;13.43;2.38;;;;;;;;;;5029715;28;20513;-79
2022/06/18 13:36:13;;;;;;;10.13;2.38;;;;;;;;;;5036428;28;20034;-82
2022/06/18 13:38:49;;;;;;;16.15;2.42;;;;;;;;;;5022382;28;20021;-79
2022/06/18 13:41:39;;;;;;;7.80;2.65;;;;;;;;;;5043415;28;20053;-79
2022/06/18 13:44:10;;;;;;;12.57;2.45;;;;;;;;;;5046833;28;20387;-83
2022/06/18 13:46:48;;;;;;;9.65;3.08;;;;;;;;;;5042859;28;20060;-80
2022/06/18 13:49:26;;;;;;;9.43;2.22;;;;;;;;;;5040018;28;20512;-80
2022/06/18 13:52:04;;;;;;;14.07;2.63;;;;;;;;;;5036891;28;20040;-80
2022/06/18 13:54:47;;;;;;;10.50;2.15;;;;;;;;;;5040514;28;20053;-80
2022/06/18 13:57:16;;;;;;;10.15;2.47;;;;;;;;;;5020069;28;20437;-83
2022/06/18 13:59:58;;;;;;;9.65;2.22;;;;;;;;;;5039227;28;20013;-83
2022/06/18 14:02:31;;;;;;;11.70;2.78;;;;;;;;;;5056013;28;20030;-82
2022/06/18 14:05:05;;;;;;;11.65;2.63;;;;;;;;;;5033510;28;20029;-85
2022/06/18 14:07:33;;;;;;;9.50;2.55;;;;;;;;;;5041337;28;20025;-87
2022/06/18 14:09:59;;;;;;;9.00;2.72;;;;;;;;;;5033117;28;20029;-82
2022/06/18 14:12:34;;;;;;;9.60;2.97;;;;;;;;;;5055581;28;20024;-82
2022/06/18 14:15:27;;;;;;;8.85;2.35;;;;;;;;;;5050696;28;20047;-82
2022/06/18 14:17:56;;;;;;;9.85;2.60;;;;;;;;;;5029477;28;20028;-83
2022/06/18 14:20:38;;;;;;;12.27;2.70;;;;;;;;;;5040337;28;20060;-82
2022/06/18 14:23:08;;;;;;;12.15;3.15;;;;;;;;;;5040340;28;20071;-82
2022/06/18 14:26:02;;;;;;;13.20;3.00;;;;;;;;;;5037417;28;20017;-83
2022/06/18 14:28:38;;;;;;;9.07;2.10;;;;;;;;;;5038608;28;20032;-82
2022/06/18 14:31:25;;;;;;;12.50;2.50;;;;;;;;;;5038321;28;20029;-82
2022/06/18 14:34:01;;;;;;;7.72;2.33;;;;;;;;;;5038260;28;20367;-82
2022/06/18 14:36:34;;;;;;;14.00;2.33;;;;;;;;;;5040189;28;20036;-82
2022/06/18 14:39:02;;;;;;;11.40;2.65;;;;;;;;;;5046351;28;20112;-80
2022/06/18 14:41:37;;;;;;;14.75;2.70;;;;;;;;;;5019054;28;20025;-80
2022/06/18 14:44:36;;;;;;;7.10;2.53;;;;;;;;;;5041258;28;20064;-81
2022/06/18 14:47:04;;;;;;;5.30;2.08;;;;;;;;;;5025907;28;20096;-81
2022/06/18 14:49:33;;;;;;;10.43;2.80;;;;;;;;;;5037141;28;20033;-79
2022/06/18 14:52:07;;;;;;;9.98;2.53;;;;;;;;;;5038317;28;20037;-79
2022/06/18 14:54:32;;;;;;;5.65;2.47;;;;;;;;;;5038141;28;20049;-82
2022/06/18 14:57:50;;;;;;;14.23;3.03;;;;;;;;;;5020561;28;20048;-83
2022/06/18 15:00:31;;;;;;;7.25;2.22;;;;;;;;;;5043533;28;20510;-81
2022/06/18 15:03:15;;;;;;;;;;;;;;;;;;5032256;28;20072;-82
2022/06/18 15:05:41;;;;;;;;;;;;;;;;;;5036860;28;19913;-81
2022/06/18 15:08:16;;;;;;;;;;;;;;;;;;5037693;28;19966;-81
2022/06/18 15:10:47;;;;;;;;;;;;;;;;;;5040868;28;19912;-81
2022/06/18 15:13:13;;;;;;;;;;;;;;;;;;5039475;28;19909;-82
2022/06/18 15:21:05;;;;;;;;;;;;;;;;;;5038800;28;19913;-82
2022/06/18 15:26:33;;;;;;;;;;;;;;;;;;4960478;28;20001;-83
2022/06/18 15:29:03;;;;;;;;;;;;;;;;;;5027453;28;19909;-82
2022/06/18 15:31:32;;;;;;;;;;;;;;;;;;5041768;28;19924;-86
2022/06/18 15:33:59;;;;;;;;;;;;;;;;;;5044225;28;19973;-81
2022/06/18 15:36:26;;;;;;;;;;;;;;;;;;5025974;28;19909;-82
2022/06/18 15:38:59;;;;;;;;;;;;;;;;;;5043620;28;19927;-82
2022/06/18 15:41:32;;;;;;;;;;;;;;;;;;5038506;28;19916;-81
2022/06/18 15:43:57;;;;;;;;;;;;;;;;;;5029797;28;19912;-84
2022/06/18 15:46:25;;;;;;;;;;;;;;;;;;5025597;28;19921;-82
2022/06/18 15:48:51;;;;;;;;;;;;;;;;;;5051974;28;19917;-82
2022/06/18 15:51:19;;;;;;;;;;;;;;;;;;5038352;28;19952;-82
2022/06/18 15:53:47;;;;;;;;;;;;;;;;;;5058153;28;19963;-82
2022/06/18 15:56:16;;;;;;;;;;;;;;;;;;5038405;28;19938;-83
2022/06/18 15:58:41;;;;;;;;;;;;;;;;;;5020560;28;19916;-82